Time;durP1;ratioP1;P1;durP2;ratioP2;P2;SDS_P1;SDS_P2;PMS_P1;PMS_P2;Temp;Humidity;BMP_temperature;BMP_pressure;BME280_temperature;BME280_humidity;BME280_pressure;Samples;Min_cycle;Max_cycle;Signal;HPM_P1;HPM_P2
2023/04/22 00:02:15;;;;;;;14.30;5.47;;;10.60;99.90;;;;;;5019033;28;20054;-78
2023/04/22 00:04:45;;;;;;;7.55;4.82;;;10.60;99.90;;;;;;5020023;28;20057;-78
2023/04/22 00:07:13;;;;;;;5.50;3.40;;;10.60;99.90;;;;;;5018946;28;20049;-78
2023/04/22 00:09:40;;;;;;;4.75;3.60;;;10.60;99.90;;;;;;5034750;28;20056;-79
2023/04/22 00:12:08;;;;;;;6.35;3.58;;;10.60;99.90;;;;;;5020313;28;20132;-78
2023/04/22 00:14:34;;;;;;;5.30;3.50;;;10.50;99.90;;;;;;5023083;28;20128;-78
2023/04/22 00:17:01;;;;;;;9.25;2.95;;;10.50;99.90;;;;;;5020140;28;20133;-78
2023/04/22 00:19:28;;;;;;;4.93;3.30;;;10.50;99.90;;;;;;5020295;28;20087;-79
2023/04/22 00:21:55;;;;;;;5.57;3.30;;;10.50;99.90;;;;;;5017661;28;20057;-78
2023/04/22 00:24:22;;;;;;;6.13;3.30;;;10.50;99.90;;;;;;5019330;28;20081;-78
2023/04/22 00:26:48;;;;;;;4.50;2.92;;;10.50;99.90;;;;;;5020402;28;20060;-78
2023/04/22 00:29:15;;;;;;;3.30;2.67;;;10.40;99.90;;;;;;5018205;28;20557;-79
2023/04/22 00:31:42;;;;;;;7.55;3.00;;;10.40;99.90;;;;;;5018637;28;20042;-78
2023/04/22 00:34:08;;;;;;;4.22;2.92;;;10.40;99.90;;;;;;5018820;28;20046;-79
2023/04/22 00:36:35;;;;;;;4.00;2.85;;;10.40;99.90;;;;;;5020623;28;20159;-79
2023/04/22 00:39:02;;;;;;;5.00;2.88;;;10.30;99.90;;;;;;5022325;28;20444;-78
2023/04/22 00:41:29;;;;;;;3.95;3.00;;;10.30;99.90;;;;;;5018039;28;20105;-79
2023/04/22 00:43:58;;;;;;;7.65;2.95;;;10.30;99.90;;;;;;5023398;28;20054;-78
2023/04/22 00:46:26;;;;;;;8.13;2.97;;;10.30;99.90;;;;;;5023883;28;20420;-80
2023/04/22 00:48:53;;;;;;;4.05;3.05;;;10.20;99.90;;;;;;5021905;28;20045;-80
2023/04/22 00:51:19;;;;;;;3.25;2.90;;;10.20;99.90;;;;;;5022177;28;20096;-79
2023/04/22 00:53:46;;;;;;;3.40;2.60;;;10.10;99.90;;;;;;5021396;28;20466;-79
2023/04/22 00:56:13;;;;;;;4.03;2.60;;;10.10;99.90;;;;;;5021536;28;20132;-79
2023/04/22 00:58:40;;;;;;;7.85;3.25;;;10.10;99.90;;;;;;5011437;28;20045;-80
2023/04/22 01:01:07;;;;;;;4.50;2.75;;;10.10;99.90;;;;;;5035966;28;20105;-80
2023/04/22 01:03:37;;;;;;;3.38;2.65;;;10.10;99.90;;;;;;5020370;28;20695;-79
2023/04/22 01:06:04;;;;;;;4.35;2.47;;;10.10;99.90;;;;;;5032291;28;20132;-79
2023/04/22 01:08:31;;;;;;;3.15;2.47;;;10.10;99.90;;;;;;5020419;28;20046;-80
2023/04/22 01:10:58;;;;;;;3.03;2.30;;;10.10;99.90;;;;;;5017627;28;20572;-80
2023/04/22 01:13:25;;;;;;;3.03;2.20;;;10.00;99.90;;;;;;5021142;28;20053;-78
2023/04/22 01:15:52;;;;;;;5.72;2.55;;;10.00;99.90;;;;;;5034380;28;20077;-79
2023/04/22 01:18:19;;;;;;;3.00;2.30;;;10.00;99.90;;;;;;5018992;28;20516;-79
2023/04/22 01:20:46;;;;;;;6.88;2.92;;;10.00;99.90;;;;;;5021894;28;20136;-78
2023/04/22 01:23:20;;;;;;;5.63;3.58;;;10.00;99.90;;;;;;5020706;28;20041;-78
2023/04/22 01:25:47;;;;;;;4.72;2.60;;;10.00;99.90;;;;;;5018060;28;20089;-80
2023/04/22 01:28:15;;;;;;;3.03;2.40;;;10.00;99.90;;;;;;5017640;28;20076;-78
2023/04/22 01:30:42;;;;;;;3.85;2.60;;;9.90;99.90;;;;;;5017220;28;20124;-78
2023/04/22 01:33:10;;;;;;;5.00;2.63;;;9.90;99.90;;;;;;5033285;28;20486;-79
2023/04/22 01:35:38;;;;;;;4.57;2.10;;;9.90;99.90;;;;;;5019363;28;20111;-79
2023/04/22 01:38:07;;;;;;;5.07;2.72;;;9.90;99.90;;;;;;5019583;28;20125;-78
2023/04/22 01:40:34;;;;;;;6.68;3.60;;;9.90;99.90;;;;;;5018326;28;20128;-78
2023/04/22 01:43:01;;;;;;;4.28;3.08;;;9.80;99.90;;;;;;5019990;28;20050;-79
2023/04/22 01:45:28;;;;;;;5.63;3.55;;;9.80;99.90;;;;;;5019807;28;20123;-79
2023/04/22 01:47:55;;;;;;;5.00;2.95;;;9.80;99.90;;;;;;5035227;28;20045;-79
2023/04/22 01:50:23;;;;;;;5.05;3.00;;;9.80;99.90;;;;;;5020267;28;20077;-80
2023/04/22 01:52:50;;;;;;;4.55;2.65;;;9.70;99.90;;;;;;5020806;28;20045;-79
2023/04/22 01:55:17;;;;;;;3.85;2.30;;;9.70;99.90;;;;;;5021144;28;20521;-79
2023/04/22 01:57:44;;;;;;;4.35;2.50;;;9.70;99.90;;;;;;5021585;28;20120;-79
2023/04/22 02:00:11;;;;;;;4.28;2.70;;;9.70;99.90;;;;;;5021297;28;20050;-78
2023/04/22 02:02:38;;;;;;;3.92;2.78;;;9.70;99.90;;;;;;5017490;28;20096;-78
2023/04/22 02:05:08;;;;;;;4.53;2.70;;;9.60;99.90;;;;;;5020732;28;20154;-79
2023/04/22 02:07:35;;;;;;;3.70;2.90;;;9.60;99.90;;;;;;5015279;28;20126;-78
2023/04/22 02:10:05;;;;;;;5.90;2.05;;;9.60;99.90;;;;;;5017704;28;20180;-78
2023/04/22 02:12:32;;;;;;;;;;;9.60;99.90;;;;;;5019520;28;20042;-79
2023/04/22 02:14:59;;;;;;;3.28;2.15;;;9.60;99.90;;;;;;5018266;28;19922;-78
2023/04/22 02:17:26;;;;;;;4.20;2.00;;;9.50;99.90;;;;;;5031821;28;20096;-78
2023/04/22 02:19:53;;;;;;;7.10;2.55;;;9.50;99.90;;;;;;5017409;28;20084;-78
2023/04/22 02:22:21;;;;;;;5.20;2.60;;;9.50;99.90;;;;;;5016852;28;20053;-79
2023/04/22 02:24:48;;;;;;;6.80;2.60;;;9.40;99.90;;;;;;5020637;28;20042;-78
2023/04/22 02:27:15;;;;;;;6.40;2.15;;;9.40;99.90;;;;;;5016529;28;20057;-79
2023/04/22 02:29:42;;;;;;;2.67;2.20;;;9.40;99.90;;;;;;5022175;28;20042;-79
2023/04/22 02:32:08;;;;;;;3.65;2.13;;;9.40;99.90;;;;;;5016564;28;20042;-79
2023/04/22 02:34:35;;;;;;;4.32;2.45;;;9.40;99.90;;;;;;5023164;28;20077;-79
2023/04/22 02:37:02;;;;;;;3.88;1.95;;;9.40;99.90;;;;;;5017404;28;20045;-79
2023/04/22 02:39:30;;;;;;;2.67;2.10;;;9.40;99.90;;;;;;5020171;28;20153;-79
2023/04/22 02:41:56;;;;;;;3.50;2.10;;;9.30;99.90;;;;;;5017496;28;20081;-79
2023/04/22 02:44:23;;;;;;;2.92;2.35;;;9.30;99.90;;;;;;5016764;28;20050;-78
2023/04/22 02:46:50;;;;;;;2.75;2.05;;;9.30;99.90;;;;;;5018085;28;20133;-79
2023/04/22 02:49:16;;;;;;;3.58;2.40;;;9.30;99.90;;;;;;5017243;28;20119;-79
2023/04/22 02:51:43;;;;;;;3.20;2.30;;;9.30;99.90;;;;;;5017921;28;20132;-79
2023/04/22 02:54:10;;;;;;;5.25;2.42;;;9.30;99.90;;;;;;5018068;28;20048;-79
2023/04/22 02:56:36;;;;;;;3.35;2.30;;;9.30;99.90;;;;;;5009809;28;20498;-79
2023/04/22 02:59:03;;;;;;;4.22;2.53;;;9.30;99.90;;;;;;5019884;28;20042;-78
2023/04/22 03:01:31;;;;;;;3.22;2.20;;;9.30;99.90;;;;;;5016626;28;20050;-79
2023/04/22 03:03:58;;;;;;;2.25;1.92;;;9.30;99.90;;;;;;5020461;28;20049;-79
2023/04/22 03:06:25;;;;;;;2.80;2.22;;;9.30;99.90;;;;;;5018024;28;20041;-79
2023/04/22 03:08:52;;;;;;;2.35;1.92;;;9.20;99.90;;;;;;5036117;28;20052;-80
2023/04/22 03:11:18;;;;;;;2.17;1.98;;;9.20;99.90;;;;;;5017412;28;20052;-81
2023/04/22 03:13:45;;;;;;;2.92;2.08;;;9.20;99.90;;;;;;5020973;28;20508;-80
2023/04/22 03:16:12;;;;;;;3.05;2.28;;;9.20;99.90;;;;;;5019073;28;20052;-79
2023/04/22 03:18:39;;;;;;;3.22;2.30;;;9.20;99.90;;;;;;5017479;28;20105;-79
2023/04/22 03:21:07;;;;;;;5.45;2.72;;;9.20;99.90;;;;;;5016956;28;20050;-80
2023/04/22 03:23:34;;;;;;;2.75;2.30;;;9.20;99.90;;;;;;5012575;28;20140;-78
2023/04/22 03:26:01;;;;;;;2.70;2.08;;;9.20;99.90;;;;;;5031683;28;20136;-80
2023/04/22 03:28:27;;;;;;;3.65;2.42;;;9.20;99.90;;;;;;5016056;28;20137;-80
2023/04/22 03:30:54;;;;;;;3.22;2.30;;;9.20;99.90;;;;;;5013244;28;20069;-79
2023/04/22 03:33:21;;;;;;;4.55;2.50;;;9.10;99.90;;;;;;5016861;28;20125;-79
2023/04/22 03:35:48;;;;;;;2.72;2.22;;;9.10;99.90;;;;;;5017564;28;20100;-79
2023/04/22 03:38:15;;;;;;;3.08;2.30;;;9.00;99.90;;;;;;5021900;28;20121;-81
2023/04/22 03:40:42;;;;;;;3.15;2.42;;;9.10;99.90;;;;;;5023535;28;20049;-80
2023/04/22 03:43:09;;;;;;;5.45;3.05;;;9.10;99.90;;;;;;5022589;28;20101;-79
2023/04/22 03:45:36;;;;;;;4.40;2.45;;;9.10;99.90;;;;;;5024767;28;20057;-79
2023/04/22 03:48:03;;;;;;;2.95;2.30;;;9.10;99.90;;;;;;5020906;28;20045;-79
2023/04/22 03:50:30;;;;;;;4.47;2.55;;;9.10;99.90;;;;;;5022934;28;20041;-80
2023/04/22 03:52:56;;;;;;;3.05;2.17;;;9.10;99.90;;;;;;5018327;28;20578;-80
2023/04/22 03:55:23;;;;;;;2.80;2.15;;;9.10;99.90;;;;;;5022925;28;20410;-78
2023/04/22 03:57:50;;;;;;;4.53;2.30;;;9.10;99.90;;;;;;5019722;28;20128;-79
2023/04/22 04:00:16;;;;;;;3.38;2.60;;;9.10;99.90;;;;;;5034697;28;20089;-80
2023/04/22 04:02:43;;;;;;;3.25;2.30;;;9.00;99.90;;;;;;5019473;28;20053;-80
2023/04/22 04:05:10;;;;;;;3.00;2.58;;;9.00;99.90;;;;;;5017246;28;20049;-79
2023/04/22 04:07:37;;;;;;;3.13;2.70;;;9.00;99.90;;;;;;5022662;28;20050;-80
2023/04/22 04:10:05;;;;;;;7.57;2.40;;;9.00;99.90;;;;;;5019287;28;20065;-79
2023/04/22 04:12:31;;;;;;;3.22;2.15;;;9.00;99.90;;;;;;5021651;28;20085;-80
2023/04/22 04:14:58;;;;;;;4.07;2.10;;;9.00;99.90;;;;;;5020932;28;20081;-79
2023/04/22 04:17:25;;;;;;;2.67;2.15;;;8.90;99.90;;;;;;5018245;28;20508;-79
2023/04/22 04:19:52;;;;;;;5.30;2.45;;;8.90;99.90;;;;;;5023344;28;20053;-79
2023/04/22 04:22:19;;;;;;;4.30;2.47;;;8.90;99.90;;;;;;5018056;28;20049;-79
2023/04/22 04:24:46;;;;;;;4.53;2.60;;;8.90;99.90;;;;;;5023683;28;20051;-79
2023/04/22 04:27:13;;;;;;;2.25;1.83;;;8.80;99.90;;;;;;5033527;28;20049;-80
2023/04/22 04:29:40;;;;;;;3.05;2.35;;;8.80;99.90;;;;;;5019634;28;20092;-80
2023/04/22 04:32:08;;;;;;;5.05;2.40;;;8.80;99.90;;;;;;5018366;28;20050;-80
2023/04/22 04:34:36;;;;;;;2.63;2.30;;;8.80;99.90;;;;;;5017867;28;20498;-80
2023/04/22 04:37:03;;;;;;;3.85;2.38;;;8.80;99.90;;;;;;5021423;28;20042;-80
2023/04/22 04:39:30;;;;;;;2.55;2.20;;;8.70;99.90;;;;;;5020945;28;20041;-80
2023/04/22 04:41:57;;;;;;;4.68;2.13;;;8.80;99.90;;;;;;5022185;28;20128;-80
2023/04/22 04:44:25;;;;;;;3.53;2.10;;;8.70;99.90;;;;;;5020179;28;20465;-80
2023/04/22 04:46:53;;;;;;;2.95;1.95;;;8.70;99.90;;;;;;5024365;28;20460;-79
2023/04/22 04:49:20;;;;;;;2.25;2.05;;;8.70;99.90;;;;;;5019068;28;20082;-80
2023/04/22 04:51:47;;;;;;;2.40;1.88;;;8.70;99.90;;;;;;5021121;28;20137;-79
2023/04/22 04:54:14;;;;;;;2.20;1.92;;;8.70;99.90;;;;;;5022525;28;20046;-79
2023/04/22 04:56:41;;;;;;;3.83;2.38;;;8.70;99.90;;;;;;5018987;28;20478;-79
2023/04/22 04:59:08;;;;;;;4.55;2.10;;;8.70;99.90;;;;;;5021223;28;20042;-79
2023/04/22 05:01:35;;;;;;;4.55;2.33;;;8.70;99.90;;;;;;5018888;28;20145;-79
2023/04/22 05:04:01;;;;;;;3.22;2.35;;;8.70;99.90;;;;;;5021110;28;20054;-79
2023/04/22 05:06:30;;;;;;;3.63;2.00;;;8.70;99.90;;;;;;5018327;28;20100;-79
2023/04/22 05:08:57;;;;;;;8.57;4.50;;;8.70;99.90;;;;;;5019088;28;20128;-78
2023/04/22 05:11:24;;;;;;;9.85;5.28;;;8.70;99.90;;;;;;5018534;28;20132;-79
2023/04/22 05:13:50;;;;;;;10.90;6.97;;;8.70;99.90;;;;;;5018959;28;20077;-79
2023/04/22 05:16:17;;;;;;;4.53;3.13;;;8.70;99.90;;;;;;5018756;28;20046;-79
2023/04/22 05:18:44;;;;;;;5.18;3.50;;;8.70;99.90;;;;;;5021311;28;20052;-78
2023/04/22 05:21:10;;;;;;;3.15;2.80;;;8.80;99.90;;;;;;5017346;28;20041;-79
2023/04/22 05:23:38;;;;;;;3.47;2.83;;;8.80;99.90;;;;;;5021864;28;20141;-80
2023/04/22 05:26:05;;;;;;;15.82;3.20;;;8.80;99.90;;;;;;5032670;28;20141;-81
2023/04/22 05:28:32;;;;;;;3.25;2.20;;;8.90;99.90;;;;;;5022519;28;20525;-80
2023/04/22 05:30:58;;;;;;;5.32;2.30;;;8.90;99.90;;;;;;5019190;28;20089;-80
2023/04/22 05:33:25;;;;;;;3.15;2.20;;;8.90;99.90;;;;;;5019738;28;20485;-81
2023/04/22 05:35:52;;;;;;;2.67;2.15;;;9.00;99.90;;;;;;5021379;28;20046;-80
2023/04/22 05:38:19;;;;;;;4.13;2.13;;;9.00;99.90;;;;;;5021400;28;20096;-80
2023/04/22 05:40:45;;;;;;;4.05;2.15;;;9.10;99.90;;;;;;5020822;28;20473;-80
2023/04/22 05:43:14;;;;;;;6.97;2.63;;;9.10;99.90;;;;;;5018481;28;20069;-81
2023/04/22 05:45:41;;;;;;;6.35;2.50;;;9.10;99.90;;;;;;5033916;28;20053;-80
2023/04/22 05:48:08;;;;;;;3.65;2.38;;;9.20;99.90;;;;;;5017773;28;20437;-80
2023/04/22 05:50:35;;;;;;;5.43;2.33;;;9.20;99.90;;;;;;5017067;28;20092;-79
2023/04/22 05:53:01;;;;;;;3.05;2.47;;;9.30;99.90;;;;;;5020245;28;20084;-80
2023/04/22 05:55:28;;;;;;;4.63;2.35;;;9.40;99.90;;;;;;5016596;28;20042;-80
2023/04/22 05:57:55;;;;;;;3.28;2.10;;;9.50;99.90;;;;;;5021173;28;20073;-80
2023/04/22 06:00:21;;;;;;;3.92;2.17;;;9.60;99.90;;;;;;5017972;28;20452;-80
2023/04/22 06:02:48;;;;;;;7.47;4.22;;;9.70;99.90;;;;;;5022125;28;20129;-80
2023/04/22 06:05:15;;;;;;;3.72;2.90;;;9.80;99.90;;;;;;5020153;28;20042;-80
2023/04/22 06:07:42;;;;;;;3.78;2.10;;;9.90;99.90;;;;;;5021878;28;20049;-79
2023/04/22 06:10:09;;;;;;;3.88;2.20;;;10.00;99.90;;;;;;5020218;28;20430;-79
2023/04/22 06:12:35;;;;;;;3.15;2.42;;;10.10;99.90;;;;;;5014008;28;20134;-80
2023/04/22 06:15:03;;;;;;;6.50;2.70;;;10.20;99.90;;;;;;5020551;28;20046;-80
2023/04/22 06:17:30;;;;;;;5.35;2.72;;;10.30;99.90;;;;;;5016719;28;20041;-80
2023/04/22 06:19:56;;;;;;;9.00;3.88;;;10.40;99.90;;;;;;5016623;28;20115;-80
2023/04/22 06:22:23;;;;;;;3.78;2.22;;;10.40;99.90;;;;;;5017863;28;20084;-81
2023/04/22 06:24:50;;;;;;;4.40;2.22;;;10.50;99.90;;;;;;5017721;28;20453;-81
2023/04/22 06:27:17;;;;;;;1.98;1.70;;;10.50;99.90;;;;;;5016884;28;20046;-80
2023/04/22 06:29:43;;;;;;;3.10;2.15;;;10.60;99.90;;;;;;5018860;28;20478;-79
2023/04/22 06:32:10;;;;;;;2.58;2.20;;;10.60;99.90;;;;;;5018974;28;20052;-79
2023/04/22 06:34:37;;;;;;;4.85;2.80;;;10.60;99.90;;;;;;5018994;28;20053;-80
2023/04/22 06:37:05;;;;;;;3.67;2.60;;;10.60;99.90;;;;;;5016188;28;20044;-79
2023/04/22 06:39:31;;;;;;;4.65;2.70;;;10.60;99.90;;;;;;5019041;28;20092;-81
2023/04/22 06:41:58;;;;;;;3.55;2.80;;;10.60;99.90;;;;;;5018680;28;20077;-79
2023/04/22 06:44:25;;;;;;;5.20;2.33;;;10.60;99.90;;;;;;5019545;28;20429;-80
2023/04/22 06:46:51;;;;;;;3.92;2.78;;;10.70;99.90;;;;;;5016941;28;20121;-80
2023/04/22 06:49:21;;;;;;;7.10;3.70;;;10.60;99.90;;;;;;5018668;28;20046;-80
2023/04/22 06:51:48;;;;;;;6.57;2.90;;;10.70;99.90;;;;;;5015740;28;20081;-79
2023/04/22 06:54:14;;;;;;;6.68;3.83;;;10.70;99.90;;;;;;5015867;28;20130;-80
2023/04/22 06:56:41;;;;;;;6.00;4.50;;;10.70;99.90;;;;;;5016192;28;20119;-79
2023/04/22 06:59:08;;;;;;;8.77;4.30;;;10.70;99.90;;;;;;5016213;28;20045;-79
2023/04/22 07:01:34;;;;;;;8.32;4.00;;;10.70;99.90;;;;;;5015564;28;20054;-80
2023/04/22 07:04:01;;;;;;;5.47;3.80;;;10.80;99.90;;;;;;5017355;28;20050;-79
2023/04/22 07:06:28;;;;;;;7.70;4.32;;;10.80;99.90;;;;;;5014659;28;20054;-79
2023/04/22 07:08:55;;;;;;;6.57;3.97;;;10.90;99.90;;;;;;5023652;28;20080;-79
2023/04/22 07:11:21;;;;;;;7.97;5.05;;;10.90;99.90;;;;;;5034276;28;20125;-80
2023/04/22 07:13:48;;;;;;;6.80;5.18;;;11.00;99.90;;;;;;5024881;28;20144;-79
2023/04/22 07:16:15;;;;;;;6.22;5.18;;;11.00;99.90;;;;;;5019876;28;20101;-79
2023/04/22 07:18:41;;;;;;;6.55;4.15;;;11.10;99.90;;;;;;5025758;28;20050;-79
2023/04/22 07:21:08;;;;;;;5.70;4.57;;;11.20;99.90;;;;;;5019739;28;20045;-78
2023/04/22 07:23:35;;;;;;;5.63;4.65;;;11.20;99.90;;;;;;5023234;28;20132;-79
2023/04/22 07:26:02;;;;;;;7.18;4.75;;;11.30;99.90;;;;;;5021757;28;20082;-80
2023/04/22 07:28:28;;;;;;;4.85;4.35;;;11.40;99.90;;;;;;5013257;28;20138;-81
2023/04/22 07:30:55;;;;;;;5.68;4.72;;;11.40;99.90;;;;;;5023213;28;20132;-80
2023/04/22 07:33:22;;;;;;;5.93;4.50;;;11.50;99.90;;;;;;5021122;28;20076;-81
2023/04/22 07:35:49;;;;;;;7.85;4.88;;;11.50;99.90;;;;;;5016222;28;20101;-80
2023/04/22 07:38:16;;;;;;;6.97;4.75;;;11.60;99.90;;;;;;5019838;28;20556;-80
2023/04/22 07:40:43;;;;;;;7.20;4.72;;;11.70;99.90;;;;;;5018794;28;20057;-80
2023/04/22 07:43:10;;;;;;;5.78;4.57;;;11.70;99.90;;;;;;5023130;28;20490;-79
2023/04/22 07:45:36;;;;;;;5.68;4.50;;;11.80;99.90;;;;;;5020981;28;20145;-81
2023/04/22 07:48:03;;;;;;;7.07;4.45;;;11.90;99.90;;;;;;5025969;28;20125;-80
2023/04/22 07:50:30;;;;;;;5.55;3.97;;;11.90;99.90;;;;;;5020936;28;20138;-79
2023/04/22 07:52:57;;;;;;;5.50;3.90;;;12.00;99.90;;;;;;5027998;28;20111;-79
2023/04/22 07:55:24;;;;;;;5.72;3.65;;;12.10;99.90;;;;;;5020993;28;20081;-80
2023/04/22 07:57:50;;;;;;;5.00;3.58;;;12.10;99.90;;;;;;5025359;28;20073;-79
2023/04/22 08:00:17;;;;;;;4.40;3.30;;;12.20;99.90;;;;;;5019674;28;20104;-79
2023/04/22 08:02:45;;;;;;;3.20;2.85;;;12.30;99.90;;;;;;5022016;28;20050;-79
2023/04/22 08:05:12;;;;;;;5.45;3.10;;;12.30;99.90;;;;;;5021683;28;20069;-79
2023/04/22 08:07:39;;;;;;;4.38;3.38;;;12.40;99.90;;;;;;5020853;28;20513;-79
2023/04/22 08:10:06;;;;;;;5.50;3.53;;;12.50;99.90;;;;;;5020269;28;20042;-80
2023/04/22 08:12:33;;;;;;;3.80;3.40;;;12.50;99.90;;;;;;5019962;28;20067;-79
2023/04/22 08:15:00;;;;;;;3.90;3.42;;;12.60;99.90;;;;;;5019083;28;20056;-80
2023/04/22 08:17:27;;;;;;;7.57;4.97;;;12.70;99.90;;;;;;5038769;28;20081;-80
2023/04/22 08:19:53;;;;;;;6.78;4.43;;;13.00;99.90;;;;;;5020919;28;20084;-79
2023/04/22 08:22:20;;;;;;;6.35;4.75;;;13.10;99.90;;;;;;5025217;28;20041;-80
2023/04/22 08:24:47;;;;;;;5.75;4.53;;;13.20;99.90;;;;;;5023971;28;20089;-80
2023/04/22 08:27:13;;;;;;;6.20;3.95;;;13.40;99.90;;;;;;5024971;28;20132;-80
2023/04/22 08:29:40;;;;;;;6.88;4.90;;;13.40;99.90;;;;;;5022898;28;20137;-80
2023/04/22 08:32:08;;;;;;;7.25;5.20;;;13.60;99.90;;;;;;5020657;28;20120;-80
2023/04/22 08:34:35;;;;;;;8.43;4.65;;;13.70;99.90;;;;;;5021842;28;20053;-79
2023/04/22 08:37:02;;;;;;;7.15;4.65;;;13.80;99.90;;;;;;5018615;28;20129;-81
2023/04/22 08:39:29;;;;;;;6.00;4.47;;;14.00;99.90;;;;;;5021224;28;20042;-79
2023/04/22 08:41:57;;;;;;;7.18;4.20;;;14.10;99.90;;;;;;5019853;28;20480;-79
2023/04/22 08:44:24;;;;;;;7.22;4.35;;;14.20;99.90;;;;;;5016645;28;20073;-80
2023/04/22 08:46:51;;;;;;;5.50;4.35;;;14.40;99.90;;;;;;5023531;28;20132;-81
2023/04/22 08:49:19;;;;;;;7.30;5.28;;;14.60;99.90;;;;;;5019906;28;20054;-79
2023/04/22 08:51:45;;;;;;;7.30;6.60;;;14.80;99.90;;;;;;5020872;28;20133;-80
2023/04/22 08:54:12;;;;;;;8.93;6.60;;;15.10;99.90;;;;;;5019939;28;20048;-80
2023/04/22 08:56:42;;;;;;;5.28;4.40;;;15.20;99.90;;;;;;5018998;28;20076;-79
2023/04/22 08:59:10;;;;;;;5.72;3.40;;;15.40;99.90;;;;;;5021227;28;20052;-79
2023/04/22 09:01:41;;;;;;;7.60;4.13;;;15.40;99.90;;;;;;5020996;28;20081;-79
2023/04/22 09:04:13;;;;;;;6.05;3.60;;;15.50;99.90;;;;;;5020221;28;20046;-79
2023/04/22 09:06:40;;;;;;;6.40;3.60;;;15.60;99.90;;;;;;5017725;28;20057;-79
2023/04/22 09:09:07;;;;;;;5.43;3.72;;;15.60;99.90;;;;;;5037558;28;20081;-80
2023/04/22 09:11:35;;;;;;;6.00;4.43;;;15.70;99.90;;;;;;5017889;28;20142;-79
2023/04/22 09:14:03;;;;;;;6.20;3.90;;;15.70;99.90;;;;;;5018886;28;20079;-79
2023/04/22 09:16:30;;;;;;;6.68;4.07;;;15.70;99.90;;;;;;5035246;28;20046;-79
2023/04/22 09:18:58;;;;;;;6.43;3.63;;;15.70;99.90;;;;;;5020789;28;20060;-79
2023/04/22 09:21:26;;;;;;;8.63;3.63;;;15.70;99.90;;;;;;5019956;28;20133;-80
2023/04/22 09:23:55;;;;;;;5.57;3.83;;;15.70;99.90;;;;;;5034432;28;20492;-80
2023/04/22 09:26:25;;;;;;;4.03;3.55;;;15.80;99.90;;;;;;5020763;28;20104;-79
2023/04/22 09:28:53;;;;;;;5.65;3.10;;;15.80;99.90;;;;;;5019775;28;20119;-80
2023/04/22 09:31:21;;;;;;;4.97;2.83;;;15.80;99.90;;;;;;5019947;28;20096;-78
2023/04/22 09:33:51;;;;;;;4.07;2.65;;;15.90;99.90;;;;;;5020731;28;20045;-80
2023/04/22 09:36:23;;;;;;;4.57;2.92;;;16.00;99.90;;;;;;5020210;28;20076;-79
2023/04/22 09:38:56;;;;;;;2.88;1.45;;;16.00;99.90;;;;;;5036990;28;20041;-81
2023/04/22 09:41:31;;;;;;;4.50;1.15;;;16.10;99.90;;;;;;5019909;28;20042;-79
2023/04/22 09:44:00;;;;;;;2.80;1.30;;;16.20;99.90;;;;;;5021551;28;20045;-78
2023/04/22 09:46:28;;;;;;;5.32;1.33;;;16.30;99.90;;;;;;5016689;28;20050;-79
2023/04/22 09:48:57;;;;;;;2.08;1.45;;;16.40;99.90;;;;;;5021236;28;20426;-78
2023/04/22 09:51:26;;;;;;;8.30;1.33;;;16.50;99.90;;;;;;5014543;28;20050;-78
2023/04/22 09:54:10;;;;;;;4.50;1.63;;;16.70;99.90;;;;;;5018549;28;20042;-79
2023/04/22 09:56:49;;;;;;;1.98;1.13;;;16.80;99.90;;;;;;5016852;28;20073;-79
2023/04/22 09:59:24;;;;;;;6.25;1.38;;;17.00;99.90;;;;;;5015978;28;20398;-80
2023/04/22 10:01:52;;;;;;;4.78;1.20;;;17.00;99.90;;;;;;5015635;28;20045;-79
2023/04/22 10:04:24;;;;;;;2.55;1.77;;;17.10;99.90;;;;;;5016090;28;20045;-78
2023/04/22 10:06:52;;;;;;;4.93;1.20;;;17.30;99.90;;;;;;5020306;28;20050;-78
2023/04/22 10:09:24;;;;;;;4.32;1.50;;;17.40;99.90;;;;;;5017131;28;20077;-80
2023/04/22 10:11:56;;;;;;;1.58;0.98;;;17.50;99.90;;;;;;5018392;28;20049;-80
2023/04/22 10:14:25;;;;;;;2.85;1.42;;;17.70;99.90;;;;;;5018320;28;20486;-79
2023/04/22 10:16:56;;;;;;;2.33;1.73;;;17.80;99.90;;;;;;5021547;28;20132;-79
2023/04/22 10:19:25;;;;;;;2.00;1.05;;;17.80;99.90;;;;;;5031426;28;20096;-79
2023/04/22 10:21:55;;;;;;;2.97;1.42;;;17.90;99.90;;;;;;5016958;28;20089;-79
2023/04/22 10:24:25;;;;;;;3.85;1.50;;;17.90;99.90;;;;;;5018553;28;20049;-79
2023/04/22 10:26:58;;;;;;;;;;;17.90;99.90;;;;;;5018173;28;20152;-78
2023/04/22 10:29:33;;;;;;;3.80;1.23;;;17.90;99.90;;;;;;5017476;28;20313;-80
2023/04/22 10:32:09;;;;;;;3.78;1.65;;;17.90;99.90;;;;;;5017363;28;20137;-78
2023/04/22 10:34:38;;;;;;;1.77;1.20;;;17.90;99.90;;;;;;5017183;28;20108;-78
2023/04/22 10:37:08;;;;;;;5.50;1.38;;;17.80;99.90;;;;;;5018725;28;20129;-79
2023/04/22 10:39:35;;;;;;;9.00;1.50;;;17.70;99.90;;;;;;5016701;28;20052;-79
2023/04/22 10:42:01;;;;;;;2.58;1.17;;;17.60;99.90;;;;;;5019127;28;20675;-78
2023/04/22 10:44:43;;;;;;;3.65;1.20;;;17.60;99.90;;;;;;5017073;28;20046;-79
2023/04/22 10:47:10;;;;;;;2.67;1.00;;;17.50;99.90;;;;;;5020969;28;20069;-79
2023/04/22 10:49:37;;;;;;;4.72;1.20;;;17.50;99.90;;;;;;5017747;28;20053;-79
2023/04/22 10:52:07;;;;;;;2.38;1.02;;;17.40;99.90;;;;;;5022362;28;20045;-78
2023/04/22 10:54:37;;;;;;;2.55;1.13;;;17.40;99.90;;;;;;5021066;28;20049;-78
2023/04/22 10:57:07;;;;;;;3.78;1.65;;;17.40;99.90;;;;;;5019446;28;20153;-78
2023/04/22 10:59:44;;;;;;;2.58;1.40;;;17.40;99.90;;;;;;5015464;28;20086;-79
2023/04/22 11:02:14;;;;;;;1.90;1.00;;;17.50;99.90;;;;;;5031427;28;20501;-79
2023/04/22 11:04:41;;;;;;;;;;;17.60;99.90;;;;;;5010242;28;20140;-79
2023/04/22 11:07:19;;;;;;;2.40;1.40;;;17.70;99.90;;;;;;5036830;28;19976;-78
2023/04/22 11:09:49;;;;;;;3.13;1.92;;;17.80;99.90;;;;;;5020473;28;20113;-79
2023/04/22 11:12:37;;;;;;;3.72;1.77;;;18.00;99.90;;;;;;5020190;28;20046;-79
2023/04/22 11:15:08;;;;;;;3.92;1.10;;;18.10;99.90;;;;;;5019071;28;20425;-79
2023/04/22 11:17:36;;;;;;;5.68;1.50;;;18.20;99.90;;;;;;5019353;28;20050;-79
2023/04/22 11:20:04;;;;;;;2.65;1.60;;;18.40;99.90;;;;;;5018739;28;20529;-78
2023/04/22 11:22:35;;;;;;;2.78;1.35;;;18.50;99.90;;;;;;5020839;28;20533;-80
2023/04/22 11:25:04;;;;;;;3.08;0.93;;;18.60;99.90;;;;;;5017908;28;20085;-79
2023/04/22 11:27:31;;;;;;;3.47;1.10;;;18.80;99.90;;;;;;5020229;28;20085;-79
2023/04/22 11:30:09;;;;;;;2.03;0.93;;;18.90;99.90;;;;;;5015058;28;20390;-79
2023/04/22 11:32:38;;;;;;;1.45;1.10;;;19.00;99.90;;;;;;5016828;28;20081;-80
2023/04/22 11:35:13;;;;;;;1.85;1.30;;;19.10;99.90;;;;;;5018002;28;20042;-80
2023/04/22 11:37:57;;;;;;;8.73;1.52;;;19.20;99.90;;;;;;5014776;28;20512;-78
2023/04/22 11:40:32;;;;;;;4.15;1.33;;;19.20;99.90;;;;;;5013917;28;20129;-79
2023/04/22 11:43:05;;;;;;;3.47;1.80;;;19.30;99.90;;;;;;5015551;28;20569;-79
2023/04/22 11:45:34;;;;;;;1.55;1.05;;;19.30;99.90;;;;;;5015551;28;20050;-80
2023/04/22 11:48:02;;;;;;;2.28;1.08;;;19.30;99.90;;;;;;5016201;28;20088;-79
2023/04/22 11:50:31;;;;;;;2.45;1.40;;;19.30;99.90;;;;;;5012268;28;20277;-78
2023/04/22 11:53:00;;;;;;;3.42;1.75;;;19.30;99.90;;;;;;5019909;28;20042;-79
2023/04/22 11:55:32;;;;;;;3.40;1.55;;;19.30;99.90;;;;;;5018105;28;20081;-79
2023/04/22 11:58:04;;;;;;;2.90;1.45;;;19.40;99.90;;;;;;5022857;28;20517;-79
2023/04/22 12:00:33;;;;;;;2.63;1.60;;;19.40;99.90;;;;;;5018012;28;20518;-80
2023/04/22 12:03:02;;;;;;;3.53;1.70;;;19.50;99.90;;;;;;5037373;28;20080;-78
2023/04/22 12:05:34;;;;;;;4.88;1.75;;;19.60;99.90;;;;;;5018824;28;20083;-78
2023/04/22 12:08:16;;;;;;;1.67;1.48;;;19.60;99.90;;;;;;5019777;28;20054;-78
2023/04/22 12:10:55;;;;;;;4.57;1.58;;;19.60;99.90;;;;;;5018289;28;20115;-79
2023/04/22 12:13:32;;;;;;;2.38;1.35;;;19.70;99.90;;;;;;5017686;28;20046;-79
2023/04/22 12:16:01;;;;;;;5.25;1.40;;;19.80;99.90;;;;;;5018056;28;20053;-78
2023/04/22 12:18:31;;;;;;;4.50;1.45;;;20.00;99.90;;;;;;5018359;28;20085;-78
2023/04/22 12:21:18;;;;;;;2.75;1.13;;;20.10;99.90;;;;;;5020379;28;20096;-78
2023/04/22 12:23:50;;;;;;;2.22;1.20;;;20.20;99.90;;;;;;5018902;28;20661;-78
2023/04/22 12:26:18;;;;;;;1.58;1.42;;;20.30;99.90;;;;;;5017681;28;20477;-78
2023/04/22 12:28:46;;;;;;;2.88;1.17;;;20.40;99.90;;;;;;5020107;28;20081;-79
2023/04/22 12:31:13;;;;;;;2.65;1.58;;;20.40;99.90;;;;;;5021044;28;20061;-79
2023/04/22 12:33:40;;;;;;;2.90;1.38;;;20.50;99.90;;;;;;5020252;28;20061;-79
2023/04/22 12:36:07;;;;;;;4.45;1.73;;;20.60;99.90;;;;;;5022105;28;20049;-80
2023/04/22 12:38:34;;;;;;;4.57;2.30;;;20.60;99.90;;;;;;5021300;28;20505;-79
2023/04/22 12:41:03;;;;;;;2.28;1.50;;;20.60;99.90;;;;;;5017381;28;20046;-79
2023/04/22 12:43:32;;;;;;;3.97;1.67;;;20.60;99.90;;;;;;5037367;28;20506;-80
2023/04/22 12:45:58;;;;;;;3.83;1.60;;;20.70;99.90;;;;;;5019871;28;20137;-79
2023/04/22 12:48:25;;;;;;;2.20;1.20;;;20.70;99.90;;;;;;5019030;28;20077;-79
2023/04/22 12:50:52;;;;;;;3.70;1.52;;;20.80;99.90;;;;;;5019290;28;20079;-80
2023/04/22 12:53:20;;;;;;;3.60;1.55;;;20.80;99.90;;;;;;5018712;28;20108;-79
2023/04/22 12:55:48;;;;;;;3.55;1.60;;;20.80;99.90;;;;;;5018564;28;20481;-78